Time;durP1;ratioP1;P1;durP2;ratioP2;P2;SDS_P1;SDS_P2;PMS_P1;PMS_P2;Temp;Humidity;BMP_temperature;BMP_pressure;BME280_temperature;BME280_humidity;BME280_pressure;Samples;Min_cycle;Max_cycle;Signal;HPM_P1;HPM_P2
2023/09/09 00:02:18;;;;;;;144.18;98.70;;;28.00;99.90;;;;;;5053618;28;20025;-65
2023/09/09 00:04:44;;;;;;;146.88;95.28;;;28.00;99.90;;;;;;5033758;28;20036;-65
2023/09/09 00:07:11;;;;;;;152.95;101.28;;;28.00;99.90;;;;;;5045245;28;20606;-64
2023/09/09 00:09:41;;;;;;;150.60;101.47;;;28.10;99.90;;;;;;5033598;28;20026;-65
2023/09/09 00:12:07;;;;;;;166.40;102.60;;;28.10;99.90;;;;;;5033544;28;20032;-65
2023/09/09 00:14:37;;;;;;;153.38;106.53;;;28.10;99.90;;;;;;5042756;28;20624;-64
2023/09/09 00:17:03;;;;;;;153.45;101.10;;;28.10;99.90;;;;;;5053722;28;20490;-65
2023/09/09 00:19:34;;;;;;;174.43;113.15;;;28.10;99.90;;;;;;5053390;28;20025;-65
2023/09/09 00:22:00;;;;;;;183.70;116.25;;;28.10;99.90;;;;;;5043885;28;20033;-65
2023/09/09 00:24:27;;;;;;;194.43;119.70;;;28.10;99.90;;;;;;5033284;28;20052;-66
2023/09/09 00:26:55;;;;;;;181.60;115.28;;;28.10;99.90;;;;;;5033287;28;20498;-65
2023/09/09 00:29:22;;;;;;;177.20;109.95;;;28.10;99.90;;;;;;5033300;28;20091;-65
2023/09/09 00:31:49;;;;;;;216.98;109.97;;;28.10;99.90;;;;;;5033246;28;20107;-64
2023/09/09 00:34:16;;;;;;;176.30;106.32;;;28.10;99.90;;;;;;5033353;28;20037;-63
2023/09/09 00:36:42;;;;;;;174.18;103.65;;;28.10;99.90;;;;;;5032359;28;20412;-65
2023/09/09 00:39:09;;;;;;;161.75;103.38;;;28.10;99.90;;;;;;5033156;28;20029;-66
2023/09/09 00:41:36;;;;;;;153.65;97.25;;;28.10;99.90;;;;;;5032941;28;20037;-66
2023/09/09 00:44:04;;;;;;;142.77;93.43;;;28.10;99.90;;;;;;5033038;28;20055;-65
2023/09/09 00:46:31;;;;;;;158.77;98.82;;;28.10;99.90;;;;;;5033110;28;20036;-65
2023/09/09 00:49:00;;;;;;;145.93;93.10;;;28.20;99.90;;;;;;5033164;28;20021;-66
2023/09/09 00:51:27;;;;;;;141.57;91.38;;;28.20;99.90;;;;;;5032975;28;20108;-65
2023/09/09 00:53:53;;;;;;;145.82;90.13;;;28.20;99.90;;;;;;5033119;28;20044;-65
2023/09/09 00:56:20;;;;;;;136.20;89.00;;;28.20;99.90;;;;;;5033545;28;20040;-66
2023/09/09 00:58:46;;;;;;;138.25;91.90;;;28.20;99.90;;;;;;5032795;28;20088;-66
2023/09/09 01:01:13;;;;;;;136.32;88.53;;;28.30;99.90;;;;;;5032995;28;20080;-65
2023/09/09 01:03:40;;;;;;;142.15;89.32;;;28.30;99.90;;;;;;5033071;28;20543;-65
2023/09/09 01:06:06;;;;;;;132.50;85.25;;;28.30;99.90;;;;;;5033262;28;20036;-65
2023/09/09 01:08:33;;;;;;;136.60;85.65;;;28.40;99.90;;;;;;5032936;28;20471;-65
2023/09/09 01:10:59;;;;;;;124.20;81.50;;;28.50;99.90;;;;;;5032941;28;20439;-66
2023/09/09 01:13:27;;;;;;;117.75;78.18;;;28.50;99.90;;;;;;5032776;28;20021;-65
2023/09/09 01:15:54;;;;;;;113.18;78.22;;;28.50;99.90;;;;;;5033086;28;20105;-65
2023/09/09 01:18:21;;;;;;;118.47;75.70;;;28.50;99.90;;;;;;5032966;28;20060;-66
2023/09/09 01:21:08;;;;;;;100.10;72.90;;;28.50;99.90;;;;;;5032471;28;20037;-66
2023/09/09 01:23:35;;;;;;;107.78;76.53;;;28.50;99.90;;;;;;5032693;28;20026;-66
2023/09/09 01:41:58;;;;;;;103.93;68.35;;;28.40;99.90;;;;;;5066642;28;20420;-67
2023/09/09 01:44:24;;;;;;;94.72;66.57;;;29.20;99.90;;;;;;5046740;28;20033;-67
2023/09/09 01:46:51;;;;;;;90.30;64.15;;;29.20;99.90;;;;;;5046711;28;20070;-65
2023/09/09 01:49:17;;;;;;;84.30;60.33;;;29.20;99.90;;;;;;5046327;28;20064;-65
2023/09/09 01:51:44;;;;;;;81.32;60.17;;;29.10;99.90;;;;;;5032147;28;20014;-64
2023/09/09 01:54:10;;;;;;;88.53;61.88;;;29.00;99.90;;;;;;5026718;28;20025;-63
2023/09/09 01:56:37;;;;;;;85.22;60.85;;;29.10;99.90;;;;;;5026437;28;20029;-64
2023/09/09 01:59:03;;;;;;;86.30;59.03;;;29.10;99.90;;;;;;5026856;28;20091;-64
2023/09/09 02:01:30;;;;;;;90.03;61.35;;;29.10;99.90;;;;;;5026954;28;20074;-64
2023/09/09 02:03:57;;;;;;;80.65;57.92;;;29.20;99.90;;;;;;5026716;28;20033;-64
2023/09/09 02:06:23;;;;;;;88.25;58.30;;;29.20;99.90;;;;;;5034614;28;20018;-63
2023/09/09 02:08:50;;;;;;;81.70;60.42;;;29.20;99.90;;;;;;5035728;28;20503;-62
2023/09/09 02:11:16;;;;;;;79.07;56.83;;;29.20;99.90;;;;;;5035518;28;20025;-63
2023/09/09 02:13:43;;;;;;;84.47;57.50;;;29.20;99.90;;;;;;5037273;28;20017;-64
2023/09/09 02:16:09;;;;;;;93.10;60.88;;;29.20;99.90;;;;;;5031751;28;20021;-65
2023/09/09 02:18:39;;;;;;;82.20;59.22;;;29.30;99.90;;;;;;5026495;28;20034;-67
2023/09/09 02:21:07;;;;;;;78.63;57.42;;;29.30;99.90;;;;;;5026544;28;20437;-68
2023/09/09 02:23:34;;;;;;;75.05;55.28;;;29.40;99.90;;;;;;5026569;28;20021;-69
2023/09/09 02:26:00;;;;;;;80.07;58.85;;;29.40;99.90;;;;;;5038559;28;20021;-67
2023/09/09 02:28:27;;;;;;;77.35;51.97;;;29.40;99.90;;;;;;5046201;28;20075;-66
2023/09/09 02:30:54;;;;;;;70.50;47.15;;;29.50;99.90;;;;;;5046046;28;20025;-66
2023/09/09 02:33:21;;;;;;;79.05;47.75;;;29.50;99.90;;;;;;5046207;28;20029;-67
2023/09/09 02:35:47;;;;;;;68.20;46.40;;;29.50;99.90;;;;;;5046385;28;20064;-65
2023/09/09 02:38:14;;;;;;;72.68;49.95;;;29.50;99.90;;;;;;5046448;28;20559;-65
2023/09/09 02:40:40;;;;;;;70.85;47.70;;;29.60;99.90;;;;;;5044726;28;20061;-65
2023/09/09 02:43:07;;;;;;;73.68;48.67;;;29.80;99.90;;;;;;5032640;28;20033;-65
2023/09/09 02:45:33;;;;;;;70.97;50.65;;;29.90;99.90;;;;;;5032811;28;20021;-63
2023/09/09 02:48:00;;;;;;;79.53;54.03;;;29.90;99.90;;;;;;5027810;28;20030;-63
2023/09/09 02:50:26;;;;;;;88.05;56.20;;;29.90;99.90;;;;;;5028786;28;20029;-62
2023/09/09 02:52:53;;;;;;;77.15;52.78;;;29.90;99.90;;;;;;5032917;28;20058;-62
2023/09/09 02:55:19;;;;;;;84.05;53.75;;;30.00;99.90;;;;;;5032602;28;20096;-61
2023/09/09 02:57:49;;;;;;;73.18;49.05;;;30.00;99.90;;;;;;5032505;28;20017;-62
2023/09/09 03:00:16;;;;;;;77.75;50.50;;;30.10;99.90;;;;;;5032477;28;20102;-62
2023/09/09 03:02:43;;;;;;;99.32;62.92;;;30.20;99.90;;;;;;5032589;28;20040;-62
2023/09/09 03:05:10;;;;;;;88.50;54.17;;;30.30;99.90;;;;;;5032301;28;20026;-61
2023/09/09 03:07:37;;;;;;;76.05;50.28;;;30.40;99.90;;;;;;5032466;28;20086;-62
2023/09/09 03:10:05;;;;;;;78.45;54.03;;;30.40;99.90;;;;;;5032277;28;20036;-61
2023/09/09 03:12:31;;;;;;;80.25;52.03;;;30.40;99.90;;;;;;5032155;28;20356;-62
2023/09/09 03:14:58;;;;;;;70.97;48.70;;;30.50;99.90;;;;;;5031965;28;20033;-62
2023/09/09 03:17:28;;;;;;;72.78;47.63;;;30.60;99.90;;;;;;5032424;28;20032;-62
2023/09/09 03:19:55;;;;;;;66.35;44.85;;;30.60;99.90;;;;;;5022656;28;20040;-63
2023/09/09 03:22:22;;;;;;;59.42;41.42;;;30.60;99.90;;;;;;5005142;28;20132;-67
2023/09/09 03:24:48;;;;;;;56.65;39.03;;;30.60;99.90;;;;;;5009444;28;20058;-68
2023/09/09 03:27:15;;;;;;;52.00;39.03;;;30.60;99.90;;;;;;5022676;28;20037;-67
2023/09/09 03:29:41;;;;;;;64.20;43.85;;;30.80;99.90;;;;;;5011690;28;20117;-67
2023/09/09 03:32:08;;;;;;;60.35;40.42;;;30.80;99.90;;;;;;5003722;28;20479;-66
2023/09/09 03:34:35;;;;;;;54.50;40.55;;;30.90;99.90;;;;;;5005849;28;20087;-67
2023/09/09 03:37:01;;;;;;;54.17;40.47;;;30.90;99.90;;;;;;5001468;28;20071;-65
2023/09/09 03:39:28;;;;;;;68.00;43.75;;;31.00;99.90;;;;;;5003058;28;20055;-64
2023/09/09 03:41:54;;;;;;;61.13;44.45;;;31.10;99.90;;;;;;5008331;28;20041;-64
2023/09/09 03:44:21;;;;;;;59.17;41.75;;;31.10;99.90;;;;;;5003554;28;20459;-64
2023/09/09 03:46:47;;;;;;;62.95;41.42;;;31.10;99.90;;;;;;5004555;28;20086;-65
2023/09/09 03:49:15;;;;;;;61.65;44.00;;;31.20;99.90;;;;;;5006544;28;20014;-64
2023/09/09 03:51:41;;;;;;;64.85;43.45;;;31.30;99.90;;;;;;5006683;28;20074;-66
2023/09/09 03:54:08;;;;;;;73.10;46.60;;;31.40;99.90;;;;;;4999179;28;20044;-67
2023/09/09 03:56:34;;;;;;;62.85;45.85;;;31.50;99.90;;;;;;5005233;28;20112;-66
2023/09/09 03:59:01;;;;;;;67.15;44.42;;;31.40;99.90;;;;;;5000759;28;20014;-66
2023/09/09 04:01:28;;;;;;;70.38;47.25;;;31.40;99.90;;;;;;5003250;28;20105;-65
2023/09/09 04:03:56;;;;;;;70.28;49.70;;;31.40;99.90;;;;;;4998517;28;20087;-66
2023/09/09 04:06:23;;;;;;;74.20;51.70;;;31.40;99.90;;;;;;4992411;28;20035;-63
2023/09/09 04:08:55;;;;;;;75.60;51.45;;;31.30;99.90;;;;;;4992152;28;20058;-66
2023/09/09 04:11:22;;;;;;;67.35;48.78;;;31.40;99.90;;;;;;4991818;28;20407;-64
2023/09/09 04:13:49;;;;;;;65.05;47.97;;;31.40;99.90;;;;;;5003338;28;20030;-65
2023/09/09 04:16:15;;;;;;;70.05;49.70;;;31.40;99.90;;;;;;4994382;28;20023;-65
2023/09/09 04:18:42;;;;;;;72.35;47.15;;;31.60;99.90;;;;;;4991412;28;20019;-64
2023/09/09 04:21:09;;;;;;;66.78;47.40;;;31.70;99.90;;;;;;4991696;28;20030;-64
2023/09/09 04:23:35;;;;;;;74.97;47.97;;;31.80;99.90;;;;;;4991537;28;20037;-64
2023/09/09 04:26:02;;;;;;;73.57;50.10;;;32.00;99.90;;;;;;4991675;28;20023;-63
2023/09/09 04:28:28;;;;;;;73.78;51.08;;;32.10;99.90;;;;;;4991527;28;20030;-64
2023/09/09 04:30:55;;;;;;;77.78;51.10;;;32.10;99.90;;;;;;4994084;28;20144;-64
2023/09/09 04:33:21;;;;;;;73.43;50.67;;;32.10;99.90;;;;;;5004134;28;20029;-64
2023/09/09 04:35:48;;;;;;;71.20;50.20;;;32.00;99.90;;;;;;4999936;28;20075;-65
2023/09/09 04:38:14;;;;;;;77.95;50.28;;;32.00;99.90;;;;;;4997841;28;20080;-64
2023/09/09 04:40:41;;;;;;;73.55;48.30;;;32.10;99.90;;;;;;4998061;28;20487;-65
2023/09/09 04:43:08;;;;;;;81.82;49.95;;;32.20;99.90;;;;;;5001277;28;20167;-66
2023/09/09 04:45:34;;;;;;;77.28;49.67;;;32.30;99.90;;;;;;4999629;28;20022;-66
2023/09/09 04:48:01;;;;;;;72.10;50.78;;;32.30;99.90;;;;;;5000487;28;20033;-65
2023/09/09 04:50:28;;;;;;;73.45;48.78;;;32.30;99.90;;;;;;5000301;28;20034;-65
2023/09/09 04:52:54;;;;;;;62.75;46.72;;;32.50;99.90;;;;;;5000047;28;20059;-67
2023/09/09 04:55:21;;;;;;;62.60;46.42;;;32.60;99.90;;;;;;4995311;28;20107;-63
2023/09/09 04:57:47;;;;;;;63.35;43.88;;;32.60;99.90;;;;;;5002726;28;20595;-64
2023/09/09 05:00:14;;;;;;;59.85;40.13;;;32.50;99.90;;;;;;5002162;28;20105;-66
2023/09/09 05:02:41;;;;;;;51.30;38.33;;;32.50;99.90;;;;;;5005430;28;20026;-66
2023/09/09 05:05:08;;;;;;;65.05;42.78;;;32.40;99.90;;;;;;5002800;28;20018;-67
2023/09/09 05:07:36;;;;;;;59.55;38.45;;;32.30;99.90;;;;;;4994411;28;20380;-65
2023/09/09 05:10:06;;;;;;;41.75;29.67;;;32.30;99.90;;;;;;5006908;28;20026;-66
2023/09/09 05:12:36;;;;;;;41.45;29.52;;;32.30;99.90;;;;;;5006560;28;20018;-65
2023/09/09 05:15:10;;;;;;;41.92;28.13;;;32.40;99.90;;;;;;4997259;28;20030;-64
2023/09/09 05:17:36;;;;;;;36.75;28.45;;;32.50;99.90;;;;;;5002512;28;20050;-66
2023/09/09 05:20:03;;;;;;;39.05;27.95;;;32.60;99.90;;;;;;5003827;28;20030;-66
2023/09/09 05:22:30;;;;;;;35.50;26.58;;;32.70;99.90;;;;;;5007900;28;20047;-65
2023/09/09 05:24:56;;;;;;;38.30;27.42;;;32.70;99.90;;;;;;5005856;28;20352;-66
2023/09/09 05:27:23;;;;;;;34.85;25.85;;;32.70;99.90;;;;;;5007281;28;20364;-67
2023/09/09 05:29:49;;;;;;;36.95;26.63;;;32.90;99.90;;;;;;5001876;28;20014;-65
2023/09/09 05:32:17;;;;;;;36.38;28.55;;;32.90;99.90;;;;;;5003864;28;20079;-67
2023/09/09 05:34:43;;;;;;;38.78;26.65;;;32.90;99.90;;;;;;4999626;28;20075;-66
2023/09/09 05:37:10;;;;;;;40.90;28.08;;;32.90;99.90;;;;;;4999824;28;20030;-67
2023/09/09 05:39:36;;;;;;;32.35;25.85;;;32.80;99.90;;;;;;4994904;28;20047;-68
2023/09/09 05:42:05;;;;;;;29.05;23.83;;;32.80;99.90;;;;;;4994113;28;20094;-68
2023/09/09 05:44:33;;;;;;;33.20;25.30;;;32.90;99.90;;;;;;4996627;28;20029;-67
2023/09/09 05:47:00;;;;;;;33.75;24.55;;;32.90;99.90;;;;;;5005793;28;20084;-68
2023/09/09 05:49:26;;;;;;;33.08;26.27;;;33.00;99.90;;;;;;5000599;28;20036;-67
2023/09/09 05:51:53;;;;;;;35.50;26.27;;;33.10;99.90;;;;;;5040023;22;20060;-68
2023/09/09 05:54:20;;;;;;;29.35;24.33;;;33.20;99.90;;;;;;5065014;28;20031;-67
2023/09/09 05:56:46;;;;;;;34.67;26.15;;;33.20;99.90;;;;;;5067186;28;20022;-68
2023/09/09 05:59:13;;;;;;;33.90;25.50;;;33.20;99.90;;;;;;5064425;28;20112;-69
2023/09/09 06:02:16;;;;;;;40.05;24.88;;;33.20;99.90;;;;;;5072655;28;20484;-68
2023/09/09 06:04:46;;;;;;;30.70;24.00;;;33.10;99.90;;;;;;5067585;28;20033;-65
2023/09/09 06:07:12;;;;;;;33.15;24.05;;;33.10;99.90;;;;;;5064350;28;20025;-66
2023/09/09 06:09:39;;;;;;;31.92;23.70;;;33.20;99.90;;;;;;5071713;28;20020;-66
2023/09/09 06:12:06;;;;;;;33.63;23.52;;;33.20;99.90;;;;;;5072011;28;20013;-66
2023/09/09 06:14:32;;;;;;;29.65;23.58;;;33.20;99.90;;;;;;5067401;28;20093;-65
2023/09/09 06:16:59;;;;;;;31.02;24.35;;;33.20;99.90;;;;;;5066912;28;20028;-66
2023/09/09 06:19:26;;;;;;;27.63;23.30;;;33.20;99.90;;;;;;5076127;28;20009;-67
2023/09/09 06:21:52;;;;;;;30.98;22.75;;;33.20;99.90;;;;;;5076152;28;20096;-64
2023/09/09 06:24:19;;;;;;;30.30;23.55;;;33.30;99.90;;;;;;5075150;28;20115;-65
2023/09/09 06:26:45;;;;;;;33.08;24.02;;;33.30;99.90;;;;;;5075595;28;20029;-66
2023/09/09 06:29:12;;;;;;;29.27;23.73;;;33.30;99.90;;;;;;5067721;28;20032;-65
2023/09/09 06:31:39;;;;;;;28.02;23.27;;;33.40;99.90;;;;;;5074221;28;20090;-67
2023/09/09 06:34:05;;;;;;;35.65;23.27;;;33.50;99.90;;;;;;5074017;28;20039;-65
2023/09/09 06:36:32;;;;;;;35.92;30.00;;;33.50;99.90;;;;;;5073917;28;20029;-66
2023/09/09 06:38:58;;;;;;;45.95;30.58;;;33.50;99.90;;;;;;5074473;28;20024;-65
2023/09/09 06:41:25;;;;;;;39.40;30.48;;;33.50;99.90;;;;;;5074678;28;20028;-65
2023/09/09 06:43:51;;;;;;;47.33;35.67;;;33.50;99.90;;;;;;5074267;28;20024;-66
2023/09/09 06:46:18;;;;;;;35.90;26.88;;;33.30;99.90;;;;;;5069803;28;20111;-66
2023/09/09 06:48:45;;;;;;;35.10;25.15;;;33.30;99.90;;;;;;5074959;28;20388;-65
2023/09/09 06:51:11;;;;;;;33.28;22.55;;;33.30;99.90;;;;;;5066622;28;20039;-64
2023/09/09 06:53:38;;;;;;;24.70;20.73;;;33.30;99.90;;;;;;5070563;28;20053;-64
2023/09/09 06:56:05;;;;;;;27.05;20.08;;;33.30;99.90;;;;;;5071382;28;20496;-64
2023/09/09 06:58:32;;;;;;;34.30;20.92;;;33.30;99.90;;;;;;5074748;28;20029;-64
2023/09/09 07:00:58;;;;;;;38.58;21.10;;;33.40;99.90;;;;;;5070334;28;20029;-63
2023/09/09 07:03:25;;;;;;;23.27;19.33;;;33.30;99.90;;;;;;5074451;28;20108;-64
2023/09/09 07:05:51;;;;;;;26.02;19.50;;;33.20;99.90;;;;;;5074948;28;20381;-64
2023/09/09 07:08:19;;;;;;;28.05;19.83;;;33.30;99.90;;;;;;5074254;28;20045;-63
2023/09/09 07:10:57;;;;;;;25.63;19.92;;;33.40;99.90;;;;;;5074513;28;20481;-63
2023/09/09 07:13:24;;;;;;;21.48;18.02;;;33.50;99.90;;;;;;5073242;28;20086;-64
2023/09/09 07:15:54;;;;;;;24.13;18.83;;;33.70;99.90;;;;;;5073698;28;20056;-64
2023/09/09 07:18:23;;;;;;;24.30;19.00;;;33.80;99.90;;;;;;5074028;28;20029;-64
2023/09/09 07:20:50;;;;;;;23.75;19.40;;;33.80;99.90;;;;;;5067979;28;20124;-64
2023/09/09 07:23:18;;;;;;;26.45;19.88;;;33.90;99.90;;;;;;5070128;28;20111;-64
2023/09/09 07:25:47;;;;;;;23.42;19.20;;;34.00;99.90;;;;;;5068607;28;20028;-63
2023/09/09 07:28:13;;;;;;;24.17;19.58;;;34.10;99.90;;;;;;5074940;28;20028;-64
2023/09/09 07:30:40;;;;;;;34.20;20.80;;;34.20;99.90;;;;;;5073710;28;20031;-66
2023/09/09 07:33:06;;;;;;;27.45;20.85;;;34.20;99.90;;;;;;5052481;28;20022;-64
2023/09/09 07:35:36;;;;;;;39.47;24.15;;;34.30;99.90;;;;;;5046516;28;20431;-64
2023/09/09 07:38:06;;;;;;;37.35;26.08;;;34.40;99.90;;;;;;5045205;28;20017;-65
2023/09/09 07:40:32;;;;;;;43.33;26.02;;;34.40;99.90;;;;;;5054654;28;20033;-66
2023/09/09 07:42:59;;;;;;;34.50;24.08;;;34.50;99.90;;;;;;5055305;28;20586;-66
2023/09/09 07:45:26;;;;;;;63.00;25.75;;;34.50;99.90;;;;;;5054958;28;20029;-64
2023/09/09 07:47:53;;;;;;;31.35;21.92;;;34.50;99.90;;;;;;5054644;28;20038;-67
2023/09/09 07:50:20;;;;;;;33.00;23.35;;;34.50;99.90;;;;;;5054252;28;20132;-66
2023/09/09 07:52:46;;;;;;;31.23;23.00;;;34.50;99.90;;;;;;5054449;28;20053;-67
2023/09/09 07:55:13;;;;;;;37.47;22.15;;;34.50;99.90;;;;;;5054544;28;20024;-65
2023/09/09 07:57:39;;;;;;;31.00;22.77;;;34.50;99.90;;;;;;5054539;28;20025;-67
2023/09/09 08:00:07;;;;;;;31.02;22.08;;;34.60;99.90;;;;;;5053169;28;20025;-66
2023/09/09 08:02:35;;;;;;;28.50;21.08;;;34.60;99.90;;;;;;5054075;28;20032;-67
2023/09/09 08:05:06;;;;;;;27.23;21.20;;;34.60;99.70;;;;;;5054137;28;20021;-65
2023/09/09 08:07:32;;;;;;;28.25;21.83;;;34.50;99.90;;;;;;5054715;28;20495;-64
2023/09/09 08:09:59;;;;;;;28.83;21.55;;;34.50;99.90;;;;;;5054307;28;20056;-65
2023/09/09 08:12:25;;;;;;;30.48;22.10;;;34.50;99.90;;;;;;5054195;28;20029;-65
2023/09/09 08:15:12;;;;;;;29.75;21.00;;;34.50;99.90;;;;;;5054203;28;20474;-64
2023/09/09 08:17:39;;;;;;;31.08;21.60;;;34.50;99.90;;;;;;5054038;28;20423;-65
2023/09/09 08:20:07;;;;;;;29.20;22.08;;;34.50;99.90;;;;;;5054096;28;20426;-66
2023/09/09 08:22:36;;;;;;;30.85;22.02;;;34.30;99.90;;;;;;5054292;28;20506;-66
2023/09/09 08:25:03;;;;;;;31.92;21.75;;;34.30;99.90;;;;;;5054052;28;20096;-66
2023/09/09 08:27:30;;;;;;;34.25;21.13;;;34.30;99.90;;;;;;5054223;28;20047;-66
2023/09/09 08:29:57;;;;;;;34.38;19.73;;;34.20;99.90;;;;;;5054049;28;20033;-65
2023/09/09 08:32:23;;;;;;;26.02;20.58;;;34.20;99.90;;;;;;5053793;28;20078;-67
2023/09/09 08:34:54;;;;;;;29.95;19.90;;;34.10;99.90;;;;;;5054353;28;20040;-65
2023/09/09 08:37:21;;;;;;;45.63;32.20;;;34.10;99.90;;;;;;5053796;28;20025;-67
2023/09/09 08:39:53;;;;;;;47.13;35.83;;;34.00;99.90;;;;;;5053116;28;20033;-67
2023/09/09 08:42:37;;;;;;;;;;;33.90;99.90;;;;;;5054200;28;20047;-66
2023/09/09 08:45:23;;;;;;;51.10;36.22;;;34.00;99.90;;;;;;5053611;28;19909;-66
2023/09/09 08:47:52;;;;;;;47.67;36.60;;;33.90;99.90;;;;;;5053588;28;20040;-66
2023/09/09 08:50:22;;;;;;;42.58;34.90;;;33.80;99.90;;;;;;5053344;28;20038;-67
2023/09/09 08:52:53;;;;;;;46.58;33.80;;;33.80;99.90;;;;;;5053032;28;20559;-66
2023/09/09 08:55:20;;;;;;;41.22;32.67;;;33.80;99.90;;;;;;5053600;28;20115;-66
2023/09/09 08:57:49;;;;;;;53.28;33.95;;;33.80;99.90;;;;;;5053357;28;20532;-66
2023/09/09 09:00:17;;;;;;;47.97;34.55;;;33.80;99.90;;;;;;5052816;28;20489;-67
2023/09/09 09:02:47;;;;;;;51.15;33.13;;;33.80;99.90;;;;;;5052360;28;20032;-67
2023/09/09 09:05:16;;;;;;;43.55;31.30;;;33.80;99.90;;;;;;5053331;28;20036;-66
2023/09/09 09:07:42;;;;;;;46.53;31.55;;;33.80;99.90;;;;;;5048999;28;20414;-66
2023/09/09 09:10:09;;;;;;;53.15;35.05;;;33.70;99.90;;;;;;5034956;28;20364;-66
2023/09/09 09:12:38;;;;;;;45.55;31.25;;;33.70;99.90;;;;;;5032288;28;20048;-66
2023/09/09 09:15:05;;;;;;;44.83;30.45;;;33.60;99.90;;;;;;5033103;28;20387;-65
2023/09/09 09:17:33;;;;;;;40.17;30.75;;;33.60;99.90;;;;;;5032943;28;20021;-66
2023/09/09 09:19:59;;;;;;;58.03;43.38;;;33.60;99.90;;;;;;5033102;28;20475;-65
2023/09/09 09:22:26;;;;;;;338.30;224.30;;;33.60;99.90;;;;;;5033009;28;20471;-65
2023/09/09 09:24:53;;;;;;;581.88;387.40;;;33.70;99.90;;;;;;5032777;28;20022;-64
2023/09/09 09:27:19;;;;;;;526.03;352.23;;;33.60;99.90;;;;;;5032918;28;20034;-69
2023/09/09 09:29:47;;;;;;;290.55;165.20;;;33.60;99.90;;;;;;5032837;28;20110;-66
2023/09/09 09:32:16;;;;;;;114.60;68.00;;;33.60;99.90;;;;;;5067319;28;20021;-64
2023/09/09 09:34:43;;;;;;;287.50;168.63;;;33.50;99.90;;;;;;5072357;28;20051;-65
2023/09/09 09:37:17;;;;;;;207.98;122.57;;;33.50;99.90;;;;;;5071418;28;20401;-66
2023/09/09 09:39:45;;;;;;;189.73;107.28;;;33.50;99.90;;;;;;5072647;28;20027;-65
2023/09/09 09:42:13;;;;;;;248.52;131.35;;;33.40;99.90;;;;;;5072518;28;20025;-66
2023/09/09 09:44:39;;;;;;;232.30;164.35;;;33.40;99.90;;;;;;5072442;28;20463;-66
2023/09/09 09:47:08;;;;;;;176.02;122.03;;;33.30;99.90;;;;;;5072187;28;20052;-66
2023/09/09 09:49:43;;;;;;;124.32;84.63;;;33.40;99.90;;;;;;5067056;28;20429;-65
2023/09/09 09:52:21;;;;;;;122.50;78.93;;;33.30;99.90;;;;;;5074125;28;20041;-65
2023/09/09 09:54:51;;;;;;;161.23;104.43;;;33.30;99.90;;;;;;5076036;28;20021;-65
2023/09/09 09:57:21;;;;;;;107.13;73.57;;;33.20;99.90;;;;;;5071958;28;20103;-65
2023/09/09 09:59:48;;;;;;;107.90;69.38;;;33.20;99.90;;;;;;5076048;28;20100;-66
2023/09/09 10:02:15;;;;;;;106.05;64.03;;;33.20;99.90;;;;;;5071039;28;20542;-66
2023/09/09 10:04:42;;;;;;;96.03;57.72;;;33.20;99.90;;;;;;5076171;28;20028;-67
2023/09/09 10:07:17;;;;;;;100.03;59.40;;;33.20;99.90;;;;;;5075777;28;20287;-66
2023/09/09 10:09:55;;;;;;;91.40;53.63;;;33.10;99.90;;;;;;5075969;28;20116;-65
2023/09/09 10:12:36;;;;;;;85.15;51.55;;;33.10;99.90;;;;;;5072602;28;20051;-66
2023/09/09 10:15:05;;;;;;;74.18;50.40;;;33.00;99.90;;;;;;5072925;28;20066;-65
2023/09/09 10:17:33;;;;;;;78.03;48.20;;;33.00;99.90;;;;;;5075632;28;20020;-65
2023/09/09 10:20:01;;;;;;;74.80;46.95;;;32.90;99.90;;;;;;5075912;28;20025;-67
2023/09/09 10:22:30;;;;;;;75.22;49.97;;;32.90;99.90;;;;;;5076251;28;20433;-67
2023/09/09 10:24:58;;;;;;;70.40;47.15;;;32.90;99.90;;;;;;5076212;28;20025;-67
2023/09/09 10:27:27;;;;;;;68.93;46.80;;;32.90;99.90;;;;;;5076309;28;20504;-67
2023/09/09 10:29:55;;;;;;;71.85;45.33;;;32.90;99.90;;;;;;5076114;28;20069;-68
2023/09/09 10:32:24;;;;;;;67.82;42.92;;;32.90;99.90;;;;;;5075782;28;20024;-67
2023/09/09 10:34:53;;;;;;;52.13;38.25;;;32.90;99.90;;;;;;5074756;28;20020;-67
2023/09/09 10:37:21;;;;;;;58.75;41.88;;;32.80;99.90;;;;;;5075939;28;20435;-66
2023/09/09 10:39:49;;;;;;;63.17;38.60;;;32.80;99.90;;;;;;5075881;28;20063;-67
2023/09/09 10:42:17;;;;;;;51.58;36.50;;;32.80;99.90;;;;;;5076026;28;20021;-66
2023/09/09 10:44:50;;;;;;;52.80;34.95;;;32.80;99.90;;;;;;5070811;28;20487;-66
2023/09/09 10:47:16;;;;;;;59.83;36.75;;;32.70;99.90;;;;;;5037976;28;20022;-67
2023/09/09 10:49:43;;;;;;;58.67;34.40;;;32.70;99.90;;;;;;5035794;28;20059;-67
2023/09/09 10:52:31;;;;;;;44.70;34.10;;;32.60;99.90;;;;;;5035259;28;20139;-67
2023/09/09 10:55:29;;;;;;;53.88;34.33;;;32.50;99.90;;;;;;5037544;28;20032;-65
2023/09/09 10:57:58;;;;;;;50.75;35.20;;;32.50;99.90;;;;;;5066629;28;20025;-66
2023/09/09 11:00:40;;;;;;;48.53;35.47;;;32.40;99.90;;;;;;5063565;28;20563;-65
2023/09/09 11:03:22;;;;;;;56.67;35.60;;;32.30;99.90;;;;;;5060959;28;20521;-67
2023/09/09 11:05:58;;;;;;;54.17;35.47;;;32.30;99.90;;;;;;5068907;28;20039;-67
2023/09/09 11:08:29;;;;;;;52.10;37.03;;;32.30;99.90;;;;;;5065893;28;20032;-65
2023/09/09 11:11:18;;;;;;;57.08;36.85;;;32.20;99.90;;;;;;5064441;28;20041;-65
2023/09/09 11:13:51;;;;;;;53.15;37.30;;;32.20;99.90;;;;;;5069689;28;20021;-66
2023/09/09 11:16:34;;;;;;;55.25;38.17;;;32.20;99.90;;;;;;5070333;28;20017;-65
2023/09/09 11:19:13;;;;;;;66.45;46.35;;;32.20;99.90;;;;;;5067010;28;20068;-67
2023/09/09 11:21:45;;;;;;;52.35;37.03;;;32.20;99.90;;;;;;5073973;28;20032;-67
2023/09/09 11:24:11;;;;;;;;;;;32.20;99.90;;;;;;5061122;28;20029;-66
2023/09/09 11:26:40;;;;;;;52.17;33.78;;;32.10;99.90;;;;;;5063782;28;19943;-65
2023/09/09 11:29:08;;;;;;;46.17;34.33;;;32.00;99.90;;;;;;5072408;28;20017;-66
2023/09/09 11:31:34;;;;;;;45.03;32.10;;;32.00;99.90;;;;;;5070471;28;20395;-67
2023/09/09 11:34:01;;;;;;;54.15;33.25;;;32.00;99.90;;;;;;5065549;28;20281;-67
2023/09/09 11:36:29;;;;;;;50.85;33.40;;;32.00;99.90;;;;;;5068964;28;20131;-69
2023/09/09 11:39:00;;;;;;;47.72;31.75;;;32.00;99.90;;;;;;5073783;28;20059;-68
2023/09/09 11:41:31;;;;;;;44.77;32.07;;;32.00;99.90;;;;;;5065464;28;20021;-68
2023/09/09 11:43:59;;;;;;;43.80;33.13;;;32.00;99.90;;;;;;5069184;28;20257;-67
2023/09/09 11:46:27;;;;;;;46.55;33.63;;;32.00;99.90;;;;;;5072908;28;20479;-66
2023/09/09 11:48:53;;;;;;;47.35;35.30;;;31.90;99.90;;;;;;5074509;28;20029;-68
2023/09/09 11:51:21;;;;;;;48.47;33.55;;;31.90;99.90;;;;;;5070231;28;20028;-68
2023/09/09 11:53:48;;;;;;;51.38;35.55;;;31.80;99.90;;;;;;5070016;28;20039;-65
2023/09/09 11:56:18;;;;;;;49.10;34.08;;;31.80;99.90;;;;;;5071873;28;20020;-66
2023/09/09 11:58:44;;;;;;;43.85;31.95;;;31.70;99.90;;;;;;5074380;28;20444;-66
2023/09/09 12:01:12;;;;;;;52.40;35.17;;;31.70;99.90;;;;;;5066562;28;20032;-67
2023/09/09 12:03:39;;;;;;;61.20;39.92;;;31.70;99.90;;;;;;5067520;28;20085;-68
2023/09/09 12:06:10;;;;;;;87.72;59.75;;;31.70;99.90;;;;;;5070802;28;20479;-67
2023/09/09 12:08:37;;;;;;;98.10;64.40;;;31.60;99.90;;;;;;5067909;28;20096;-65
2023/09/09 12:11:07;;;;;;;89.40;59.80;;;31.60;99.90;;;;;;5056049;28;20033;-66
2023/09/09 12:13:36;;;;;;;97.82;66.03;;;31.50;99.90;;;;;;5067120;28;20102;-67
2023/09/09 12:16:03;;;;;;;104.50;66.47;;;31.60;99.90;;;;;;5065584;28;20115;-67
2023/09/09 12:18:30;;;;;;;97.15;63.17;;;31.50;99.90;;;;;;5072326;28;20081;-64
2023/09/09 12:21:05;;;;;;;102.75;62.03;;;31.50;99.90;;;;;;5073931;28;20040;-66
2023/09/09 12:23:35;;;;;;;98.50;59.63;;;31.50;99.90;;;;;;5073891;28;20024;-63
2023/09/09 12:26:15;;;;;;;94.03;60.65;;;31.40;99.90;;;;;;5073005;28;20040;-65
2023/09/09 12:28:43;;;;;;;107.85;60.45;;;31.30;99.90;;;;;;5072751;28;20052;-64
2023/09/09 12:31:12;;;;;;;94.43;62.35;;;31.40;99.90;;;;;;5071161;28;20024;-63
2023/09/09 12:33:39;;;;;;;143.68;92.28;;;31.30;99.90;;;;;;5056745;28;20029;-64
2023/09/09 12:36:06;;;;;;;175.52;111.55;;;31.20;99.90;;;;;;5041031;28;20033;-64
2023/09/09 12:38:39;;;;;;;173.13;111.30;;;31.20;99.90;;;;;;5033555;28;20025;-64
2023/09/09 12:41:07;;;;;;;172.20;111.55;;;31.20;99.90;;;;;;5033690;28;20025;-64
2023/09/09 12:43:36;;;;;;;171.13;105.25;;;31.10;99.90;;;;;;5036510;28;20021;-66
2023/09/09 12:46:08;;;;;;;139.30;90.78;;;31.10;99.90;;;;;;5053017;28;20078;-64
2023/09/09 12:48:58;;;;;;;147.95;93.10;;;31.00;99.90;;;;;;5050316;28;20032;-66